Archival Weather

Barra Do Garcas

Barra Do Garcas, Brazil (SBBW)

Report from: Saturday, December 2, 2023 6:00 PM -03
Current time: Wednesday, April 24, 2024 3:06 PM -03

Current weather – Weather history – Daily summaries
Weather forecast

Temperature30.0°C (86.0°F)
Heat index36.3°C (97.3°F)
Dew point25.0°C (77.0°F)
Winds 2 kts (1 m/s, 2.3 mph) East-Northeast (60°)
Visibility6.2 mi. (10 km)
Clouds Few clouds 2,000 ft. (610 m)
Scattered clouds 8,000 ft. (2,438 m)
Ceiling: Broken clouds 9,000 ft. (2,743 m)
Altimeter29.80 in.Hg (1009 mB)
Relative humidity75 %
Density altitude2,285 ft. (696 m)
Flight conditions Visual Meteorological Conditions
Raw dataSBBW 022100Z 06002KT 9999 FEW020 SCT080 BKN090 30/25 Q1009
An error has occurred. This application may no longer respond until reloaded. Reload 🗙